createdAt,value
2018-03-24T00:01:05.824Z,74.73
2018-03-24T00:03:33.408Z,78.03
2018-03-24T00:06:01.048Z,79.51
2018-03-24T00:08:28.694Z,78.47
2018-03-24T00:10:56.261Z,79.33
2018-03-24T00:13:23.905Z,78.58
2018-03-24T00:15:51.551Z,80.11
2018-03-24T00:18:19.137Z,79.11
2018-03-24T00:20:46.993Z,78.84
2018-03-24T00:23:14.634Z,77.65
2018-03-24T00:25:42.210Z,77.94
2018-03-24T00:28:12.942Z,77.58
2018-03-24T00:30:41.156Z,77.60
2018-03-24T00:33:08.799Z,77.94
2018-03-24T00:35:36.454Z,78.34
2018-03-24T00:38:04.057Z,77.51
2018-03-24T00:40:32.601Z,77.69
2018-03-24T00:43:00.324Z,77.77
2018-03-24T00:45:27.902Z,77.30
2018-03-24T00:47:57.436Z,76.93
2018-03-24T00:50:25.057Z,77.15
2018-03-24T00:52:52.702Z,77.23
2018-03-24T00:55:20.866Z,76.53
2018-03-24T00:57:48.794Z,76.71
2018-03-24T01:00:16.380Z,76.75
2018-03-24T01:02:43.958Z,76.22
2018-03-24T01:05:11.898Z,75.80
2018-03-24T01:07:39.467Z,75.77
2018-03-24T01:10:07.043Z,75.21
2018-03-24T01:12:34.680Z,77.09
2018-03-24T01:15:02.262Z,74.14
2018-03-24T01:17:29.809Z,73.69
2018-03-24T01:19:57.412Z,73.54
2018-03-24T01:22:24.997Z,73.71
2018-03-24T01:24:52.540Z,73.14
2018-03-24T01:27:20.171Z,72.55
2018-03-24T01:29:47.750Z,74.45
2018-03-24T01:32:15.315Z,77.42
2018-03-24T01:34:43.238Z,76.54
2018-03-24T01:37:10.819Z,80.15
2018-03-24T01:39:38.408Z,81.63
2018-03-24T01:42:06.090Z,83.32
2018-03-24T01:44:33.892Z,84.17
2018-03-24T01:47:01.747Z,84.09
2018-03-24T01:49:29.616Z,84.15
2018-03-24T01:51:57.184Z,83.80
2018-03-24T01:54:24.911Z,83.80
2018-03-24T01:56:52.859Z,84.18
2018-03-24T01:59:21.139Z,84.13
2018-03-24T02:01:48.723Z,84.35
2018-03-24T02:04:17.333Z,83.83
2018-03-24T02:06:44.893Z,83.71
2018-03-24T02:09:12.452Z,83.68
2018-03-24T02:11:40.828Z,83.19
2018-03-24T02:14:09.111Z,82.46
2018-03-24T02:16:36.753Z,82.02
2018-03-24T02:19:04.428Z,82.04
2018-03-24T02:21:32.501Z,82.18
2018-03-24T02:24:00.147Z,82.26
2018-03-24T02:26:27.853Z,82.54
2018-03-24T02:28:55.525Z,82.72
2018-03-24T02:31:23.092Z,83.02
2018-03-24T02:33:51.400Z,83.41
2018-03-24T02:36:18.965Z,83.85
2018-03-24T02:38:46.539Z,83.49
2018-03-24T02:41:14.208Z,83.87
2018-03-24T02:43:41.787Z,83.73
2018-03-24T02:46:09.407Z,84.08
2018-03-24T02:48:37.052Z,83.93
2018-03-24T02:51:04.640Z,83.43
2018-03-24T02:53:32.224Z,83.66
2018-03-24T02:56:00.604Z,82.94
2018-03-24T02:58:28.181Z,81.95
2018-03-24T03:00:55.855Z,81.16
2018-03-24T03:03:23.878Z,80.84
2018-03-24T03:05:51.822Z,80.64
2018-03-24T03:08:19.464Z,80.21
2018-03-24T03:10:47.117Z,80.83
2018-03-24T03:13:14.704Z,81.19
2018-03-24T03:15:42.295Z,81.72
2018-03-24T03:18:09.927Z,81.83
2018-03-24T03:20:37.674Z,81.94
2018-03-24T03:23:05.276Z,82.28
2018-03-24T03:25:32.900Z,82.41
2018-03-24T03:28:00.639Z,82.29
2018-03-24T03:30:29.935Z,82.63
2018-03-24T03:32:57.789Z,82.41
2018-03-24T03:35:25.364Z,82.92
2018-03-24T03:37:52.990Z,82.88
2018-03-24T03:40:20.649Z,82.60
2018-03-24T03:42:48.242Z,82.55
2018-03-24T03:45:15.825Z,82.18
2018-03-24T03:47:43.471Z,82.03
2018-03-24T03:50:11.037Z,81.75
2018-03-24T03:52:38.610Z,81.46
2018-03-24T03:55:06.247Z,81.26
2018-03-24T03:57:33.990Z,80.65
2018-03-24T04:00:01.576Z,80.41
2018-03-24T04:02:29.442Z,80.33
2018-03-24T04:04:57.016Z,80.91
2018-03-24T04:07:24.617Z,80.75
2018-03-24T04:09:52.546Z,80.71
2018-03-24T04:12:20.123Z,80.75
2018-03-24T04:14:47.709Z,80.60
2018-03-24T04:17:15.954Z,80.21
2018-03-24T04:19:43.524Z,79.85
2018-03-24T04:22:11.078Z,79.52
2018-03-24T04:24:38.703Z,79.28
2018-03-24T04:27:06.271Z,78.68
2018-03-24T04:29:33.842Z,78.86
2018-03-24T04:32:01.550Z,78.68
2018-03-24T04:34:29.126Z,78.51
2018-03-24T04:36:56.714Z,77.61
2018-03-24T04:39:24.676Z,78.02
2018-03-24T04:41:52.354Z,78.14
2018-03-24T04:44:19.929Z,78.07
2018-03-24T04:46:47.540Z,78.34
2018-03-24T04:49:15.245Z,78.09
2018-03-24T04:51:42.839Z,79.34
2018-03-24T04:54:10.550Z,78.81
2018-03-24T04:56:38.120Z,79.59
2018-03-24T04:59:05.779Z,79.00
2018-03-24T05:01:36.605Z,78.77
2018-03-24T05:04:04.201Z,77.63
2018-03-24T05:06:31.771Z,76.59
2018-03-24T05:08:59.436Z,76.94
2018-03-24T05:11:26.997Z,76.06
2018-03-24T05:13:55.052Z,77.23
2018-03-24T05:16:22.900Z,75.31
2018-03-24T05:18:50.475Z,75.38
2018-03-24T05:21:18.057Z,73.63
2018-03-24T05:23:47.232Z,73.35
2018-03-24T05:26:14.917Z,73.49
2018-03-24T05:28:42.477Z,73.74
2018-03-24T05:31:10.117Z,72.60
2018-03-24T05:33:37.830Z,73.73
2018-03-24T05:36:05.397Z,72.38
2018-03-24T05:38:33.033Z,72.55
2018-03-24T05:41:00.640Z,71.93
2018-03-24T05:43:28.212Z,69.28
2018-03-24T05:45:55.899Z,70.11
2018-03-24T05:48:23.528Z,71.02
2018-03-24T05:50:51.124Z,69.92
2018-03-24T05:53:18.834Z,70.67
2018-03-24T05:55:47.159Z,69.55
2018-03-24T05:58:14.724Z,68.89
2018-03-24T06:00:42.806Z,69.02
2018-03-24T06:03:10.465Z,68.75
2018-03-24T06:05:38.082Z,68.34
2018-03-24T06:08:05.752Z,66.74
2018-03-24T06:10:33.463Z,67.49
2018-03-24T06:13:01.042Z,67.23
2018-03-24T06:15:28.669Z,67.41
2018-03-24T06:17:56.306Z,67.08
2018-03-24T06:20:23.890Z,67.05
2018-03-24T06:22:51.570Z,65.78
2018-03-24T06:25:19.134Z,66.80
2018-03-24T06:27:46.711Z,65.70
2018-03-24T06:30:30.999Z,65.82
2018-03-24T06:32:58.675Z,63.90
2018-03-24T06:35:26.265Z,65.46
2018-03-24T06:37:54.210Z,63.82
2018-03-24T06:40:21.776Z,63.62
2018-03-24T06:42:49.348Z,64.35
2018-03-24T06:45:16.980Z,65.00
2018-03-24T06:47:44.561Z,63.85
2018-03-24T06:50:12.209Z,64.38
2018-03-24T06:52:39.834Z,64.59
2018-03-24T06:55:08.386Z,64.41
2018-03-24T06:57:35.974Z,63.83
2018-03-24T07:00:03.877Z,62.31
2018-03-24T07:02:31.588Z,63.04
2018-03-24T07:04:59.191Z,63.73
2018-03-24T07:07:26.814Z,63.73
2018-03-24T07:09:54.495Z,63.19
2018-03-24T07:12:22.091Z,60.38
2018-03-24T07:14:49.787Z,62.14
2018-03-24T07:17:18.036Z,61.11
2018-03-24T07:19:46.388Z,61.36
2018-03-24T07:22:14.054Z,62.33
2018-03-24T07:24:41.637Z,60.97
2018-03-24T07:27:09.274Z,59.57
2018-03-24T07:29:36.910Z,60.91
2018-03-24T07:32:04.572Z,60.69
2018-03-24T07:34:32.149Z,60.62
2018-03-24T07:37:00.049Z,60.56
2018-03-24T07:39:28.014Z,59.24
2018-03-24T07:41:55.602Z,60.05
2018-03-24T07:44:23.259Z,60.35
2018-03-24T07:46:50.922Z,58.04
2018-03-24T07:49:18.969Z,58.08
2018-03-24T07:51:46.588Z,58.30
2018-03-24T07:54:14.186Z,56.99
2018-03-24T07:56:43.721Z,58.64
2018-03-24T07:59:11.426Z,58.42
2018-03-24T08:01:39.012Z,58.51
2018-03-24T08:04:07.605Z,57.10
2018-03-24T08:06:35.219Z,56.55
2018-03-24T08:09:03.709Z,57.63
2018-03-24T08:11:31.271Z,58.31
2018-03-24T08:13:58.917Z,58.17
2018-03-24T08:16:26.507Z,55.78
2018-03-24T08:18:54.085Z,58.22
2018-03-24T08:21:21.773Z,58.99
2018-03-24T08:23:49.361Z,55.93
2018-03-24T08:26:16.931Z,54.12
2018-03-24T08:28:46.054Z,55.51
2018-03-24T08:31:14.450Z,55.42
2018-03-24T08:33:42.093Z,52.64
2018-03-24T08:36:09.730Z,55.20
2018-03-24T08:38:37.308Z,57.63
2018-03-24T08:41:04.972Z,57.37
2018-03-24T08:43:32.585Z,54.34
2018-03-24T08:46:00.151Z,55.64
2018-03-24T08:48:27.716Z,55.11
2018-03-24T08:50:55.414Z,55.01
2018-03-24T08:53:23.059Z,53.88
2018-03-24T08:55:51.458Z,53.99
2018-03-24T08:58:19.115Z,52.60
2018-03-24T09:00:46.701Z,55.23
2018-03-24T09:03:14.285Z,51.69
2018-03-24T09:05:42.009Z,55.09
2018-03-24T09:08:09.596Z,52.14
2018-03-24T09:10:37.185Z,53.68
2018-03-24T09:13:04.811Z,50.15
2018-03-24T09:15:32.410Z,50.20
2018-03-24T09:17:59.976Z,52.19
2018-03-24T09:20:27.614Z,53.13
2018-03-24T09:22:55.202Z,51.00
2018-03-24T09:25:22.810Z,51.33
2018-03-24T09:27:50.706Z,50.00
2018-03-24T09:30:18.289Z,49.48
2018-03-24T09:32:45.914Z,50.76
2018-03-24T09:35:13.593Z,50.15
2018-03-24T09:37:41.166Z,50.54
2018-03-24T09:40:08.801Z,49.98
2018-03-24T09:42:36.438Z,48.55
2018-03-24T09:45:04.121Z,50.15
2018-03-24T09:47:31.779Z,49.62
2018-03-24T09:49:59.402Z,50.20
2018-03-24T09:52:26.969Z,48.00
2018-03-24T09:54:54.536Z,48.36
2018-03-24T09:57:22.155Z,46.79
2018-03-24T09:59:49.729Z,48.40
2018-03-24T10:02:17.303Z,47.50
2018-03-24T10:04:45.226Z,44.59
2018-03-24T10:07:13.150Z,46.35
2018-03-24T10:09:40.722Z,45.93
2018-03-24T10:12:09.306Z,47.29
2018-03-24T10:14:36.941Z,44.67
2018-03-24T10:17:04.589Z,47.80
2018-03-24T10:19:32.212Z,45.61
2018-03-24T10:22:25.625Z,50.30
2018-03-24T10:24:53.285Z,48.02
2018-03-24T10:27:20.906Z,45.42
2018-03-24T10:29:48.482Z,45.57
2018-03-24T10:32:18.329Z,44.33
2018-03-24T10:34:45.920Z,45.96
2018-03-24T10:37:13.602Z,45.17
2018-03-24T10:39:44.444Z,46.41
2018-03-24T10:42:12.032Z,46.31
2018-03-24T10:44:39.607Z,47.56
2018-03-24T10:47:07.473Z,48.45
2018-03-24T10:49:35.177Z,46.71
2018-03-24T10:52:02.748Z,49.29
2018-03-24T10:54:30.375Z,47.38
2018-03-24T10:56:57.957Z,47.22
2018-03-24T10:59:25.547Z,47.25
2018-03-24T11:01:53.224Z,48.12
2018-03-24T11:04:20.845Z,45.32
2018-03-24T11:06:48.412Z,46.08
2018-03-24T11:09:16.131Z,47.23
2018-03-24T11:11:43.689Z,49.05
2018-03-24T11:14:11.328Z,48.83
2018-03-24T11:16:39.198Z,52.11
2018-03-24T11:19:06.798Z,52.74
2018-03-24T11:21:34.380Z,54.74
2018-03-24T11:24:02.279Z,56.71
2018-03-24T11:26:29.943Z,58.36
2018-03-24T11:28:57.513Z,61.13
2018-03-24T11:31:25.226Z,59.58
2018-03-24T11:33:52.793Z,61.77
2018-03-24T11:36:20.381Z,61.17
2018-03-24T11:38:48.028Z,60.75
2018-03-24T11:41:15.615Z,62.63
2018-03-24T11:43:44.059Z,62.76
2018-03-24T11:46:11.698Z,63.87
2018-03-24T11:48:39.269Z,66.03
2018-03-24T11:51:06.837Z,66.11
2018-03-24T11:53:46.358Z,64.42
2018-03-24T11:56:13.995Z,63.59
2018-03-24T11:58:41.556Z,64.52
2018-03-24T12:01:09.502Z,63.25
2018-03-24T12:03:37.072Z,63.70
2018-03-24T12:06:04.681Z,63.76
2018-03-24T12:08:32.309Z,63.41
2018-03-24T12:11:00.052Z,64.17
2018-03-24T12:13:27.682Z,65.24
2018-03-24T12:15:55.300Z,64.58
2018-03-24T12:18:22.863Z,65.16
2018-03-24T12:20:50.431Z,62.66
2018-03-24T12:23:18.052Z,63.12
2018-03-24T12:25:45.638Z,64.61
2018-03-24T12:28:13.197Z,64.33
2018-03-24T12:30:41.150Z,64.22
2018-03-24T12:33:08.736Z,64.48
2018-03-24T12:35:36.339Z,63.26
2018-03-24T12:38:03.972Z,63.53
2018-03-24T12:40:31.577Z,63.41
2018-03-24T12:42:59.236Z,66.14
2018-03-24T12:45:26.882Z,66.16
2018-03-24T12:47:54.449Z,65.14
2018-03-24T12:50:22.026Z,63.95
2018-03-24T12:52:49.656Z,66.46
2018-03-24T12:55:17.234Z,64.76
2018-03-24T12:57:45.437Z,66.46
2018-03-24T13:00:13.111Z,65.02
2018-03-24T13:02:40.685Z,66.10
2018-03-24T13:05:08.288Z,65.64
2018-03-24T13:07:36.005Z,61.84
2018-03-24T13:10:03.737Z,63.01
2018-03-24T13:12:31.873Z,63.94
2018-03-24T13:14:59.501Z,64.08
2018-03-24T13:17:27.188Z,65.40
2018-03-24T13:19:54.820Z,65.50
2018-03-24T13:22:22.438Z,63.62
2018-03-24T13:24:50.008Z,66.67
2018-03-24T13:27:17.600Z,65.81
2018-03-24T13:29:45.456Z,64.62
2018-03-24T13:32:13.046Z,64.99
2018-03-24T13:34:40.633Z,63.36
2018-03-24T13:37:08.471Z,65.00
2018-03-24T13:39:36.041Z,63.36
2018-03-24T13:42:03.699Z,63.77
2018-03-24T13:44:31.335Z,63.73
2018-03-24T13:46:58.980Z,64.29
2018-03-24T13:49:26.524Z,64.76
2018-03-24T13:51:54.203Z,63.40
2018-03-24T13:54:21.791Z,65.74
2018-03-24T13:56:49.366Z,65.37
2018-03-24T13:59:17.002Z,66.01
2018-03-24T14:01:45.262Z,68.41
2018-03-24T14:04:12.846Z,66.86
2018-03-24T14:06:40.475Z,67.15
2018-03-24T14:09:08.102Z,66.94
2018-03-24T14:11:35.673Z,67.69
2018-03-24T14:14:03.424Z,67.57
2018-03-24T14:16:31.017Z,66.51
2018-03-24T14:18:58.630Z,65.74
2018-03-24T14:21:26.318Z,65.03
2018-03-24T14:23:54.520Z,64.90
2018-03-24T14:26:22.140Z,64.92
2018-03-24T14:28:49.779Z,66.99
2018-03-24T14:31:17.353Z,70.85
2018-03-24T14:33:44.934Z,71.90
2018-03-24T14:36:12.646Z,72.76
2018-03-24T14:38:40.318Z,73.96
2018-03-24T14:41:07.908Z,73.87
2018-03-24T14:43:35.536Z,74.18
2018-03-24T14:46:03.181Z,73.33
2018-03-24T14:48:30.805Z,73.16
2018-03-24T14:50:58.467Z,73.21
2018-03-24T14:53:26.116Z,74.17
2018-03-24T14:55:53.707Z,73.38
2018-03-24T14:58:21.340Z,73.21
2018-03-24T15:00:48.978Z,73.68
2018-03-24T15:03:16.545Z,73.72
2018-03-24T15:05:44.970Z,72.92
2018-03-24T15:08:12.553Z,73.96
2018-03-24T15:10:40.139Z,73.98
2018-03-24T15:13:07.772Z,73.93
2018-03-24T15:15:35.574Z,74.83
2018-03-24T15:18:03.209Z,74.92
2018-03-24T15:20:30.856Z,75.67
2018-03-24T15:22:58.498Z,76.26
2018-03-24T15:25:26.061Z,75.34
2018-03-24T15:27:53.688Z,76.45
2018-03-24T15:30:33.018Z,75.89
2018-03-24T15:33:12.550Z,76.15
2018-03-24T15:36:01.265Z,77.19
2018-03-24T15:38:29.182Z,76.22
2018-03-24T15:40:56.748Z,77.30
2018-03-24T15:43:24.324Z,76.28
2018-03-24T15:45:51.976Z,77.55
2018-03-24T15:48:19.618Z,78.57
2018-03-24T15:50:47.199Z,78.13
2018-03-24T15:53:14.858Z,78.60
2018-03-24T15:55:42.502Z,78.69
2018-03-24T15:58:10.310Z,80.43
2018-03-24T16:00:38.109Z,79.84
2018-03-24T16:03:05.800Z,80.51
2018-03-24T16:05:33.443Z,81.50
2018-03-24T16:08:01.093Z,81.70
2018-03-24T16:10:28.926Z,82.02
2018-03-24T16:12:57.355Z,82.65
2018-03-24T16:15:25.206Z,82.66
2018-03-24T16:17:53.140Z,82.84
2018-03-24T16:20:21.061Z,83.18
2018-03-24T16:22:48.959Z,83.58
2018-03-24T16:25:17.364Z,83.06
2018-03-24T16:27:45.289Z,83.13
2018-03-24T16:30:13.243Z,83.01
2018-03-24T16:32:41.125Z,82.81
2018-03-24T16:35:09.047Z,82.91
2018-03-24T16:37:37.009Z,82.95
2018-03-24T16:40:04.963Z,82.68
2018-03-24T16:42:32.837Z,82.60
2018-03-24T16:45:00.738Z,82.63
2018-03-24T16:47:28.725Z,82.30
2018-03-24T16:49:56.606Z,81.88
2018-03-24T16:52:24.571Z,82.10
2018-03-24T16:54:52.458Z,82.08
2018-03-24T16:57:20.323Z,81.88
2018-03-24T16:59:48.277Z,82.01
2018-03-24T17:02:16.159Z,81.46
2018-03-24T17:04:44.038Z,81.35
2018-03-24T17:07:11.996Z,81.78
2018-03-24T17:09:39.870Z,81.60
2018-03-24T17:12:07.758Z,81.91
2018-03-24T17:14:35.700Z,81.60
2018-03-24T17:17:03.646Z,81.69
2018-03-24T17:19:31.609Z,81.62
2018-03-24T17:21:59.740Z,81.95
2018-03-24T17:24:27.618Z,81.78
2018-03-24T17:26:55.515Z,82.81
2018-03-24T17:29:23.445Z,83.26
2018-03-24T17:31:51.342Z,83.65
2018-03-24T17:34:19.216Z,83.81
2018-03-24T17:36:47.417Z,83.86
2018-03-24T17:39:15.734Z,83.67
2018-03-24T17:41:43.617Z,83.96
2018-03-24T17:44:12.308Z,84.29
2018-03-24T17:46:40.174Z,83.81
2018-03-24T17:49:08.128Z,83.84
2018-03-24T17:51:36.084Z,84.00
2018-03-24T17:54:04.041Z,84.40
2018-03-24T17:56:32.121Z,83.70
2018-03-24T17:59:00.084Z,84.09
2018-03-24T18:01:28.864Z,84.15
2018-03-24T18:03:56.756Z,84.18
2018-03-24T18:06:24.768Z,84.77
2018-03-24T18:08:52.662Z,85.05
2018-03-24T18:11:20.636Z,85.20
2018-03-24T18:13:48.931Z,84.84
2018-03-24T18:16:16.956Z,84.73
2018-03-24T18:18:45.536Z,84.60
2018-03-24T18:21:13.592Z,84.66
2018-03-24T18:23:41.493Z,84.93
2018-03-24T18:26:10.165Z,85.84
2018-03-24T18:28:38.116Z,86.12
2018-03-24T18:31:06.027Z,86.05
2018-03-24T18:33:33.989Z,86.59
2018-03-24T18:36:01.992Z,86.27
2018-03-24T18:38:29.893Z,86.46
2018-03-24T18:40:57.804Z,86.89
2018-03-24T18:43:26.410Z,86.56
2018-03-24T18:45:54.302Z,85.80
2018-03-24T18:48:23.067Z,85.69
2018-03-24T18:50:51.402Z,86.45
2018-03-24T18:53:19.275Z,85.89
2018-03-24T18:55:47.163Z,85.71
2018-03-24T18:58:15.120Z,85.14
2018-03-24T19:00:46.312Z,85.26
2018-03-24T19:03:14.187Z,85.94
2018-03-24T19:05:42.464Z,85.48
2018-03-24T19:08:10.379Z,85.59
2018-03-24T19:10:38.314Z,85.00
2018-03-24T19:13:06.316Z,84.81
2018-03-24T19:15:34.274Z,84.67
2018-03-24T19:18:02.262Z,83.39
2018-03-24T19:20:31.007Z,84.91
2018-03-24T19:22:59.105Z,85.07
2018-03-24T19:25:27.048Z,85.29
2018-03-24T19:27:54.947Z,85.35
2018-03-24T19:30:22.958Z,84.87
2018-03-24T19:32:51.820Z,84.94
2018-03-24T19:35:19.786Z,84.61
2018-03-24T19:37:48.010Z,84.96
2018-03-24T19:40:15.909Z,85.18
2018-03-24T19:42:43.872Z,86.06
2018-03-24T19:45:11.788Z,85.54
2018-03-24T19:47:39.705Z,84.93
2018-03-24T19:50:07.672Z,83.72
2018-03-24T19:52:35.653Z,83.36
2018-03-24T19:55:03.557Z,82.10
2018-03-24T19:57:31.880Z,81.62
2018-03-24T19:59:59.845Z,81.62
2018-03-24T20:02:28.819Z,81.56
2018-03-24T20:04:56.818Z,80.91
2018-03-24T20:07:24.763Z,81.42
2018-03-24T20:09:52.750Z,81.00
2018-03-24T20:12:20.688Z,80.90
2018-03-24T20:14:48.644Z,80.98
2018-03-24T20:17:16.583Z,80.82
2018-03-24T20:19:44.589Z,81.25
2018-03-24T20:22:12.548Z,80.64
2018-03-24T20:24:41.432Z,80.95
2018-03-24T20:27:09.396Z,80.85
2018-03-24T20:29:37.280Z,81.39
2018-03-24T20:32:05.183Z,81.04
2018-03-24T20:34:33.238Z,80.79
2018-03-24T20:37:01.172Z,81.06
2018-03-24T20:39:29.126Z,81.44
2018-03-24T20:41:57.346Z,80.30
2018-03-24T20:44:25.224Z,81.27
2018-03-24T20:46:53.086Z,82.54
2018-03-24T20:49:20.961Z,82.87
2018-03-24T20:51:48.900Z,82.56
2018-03-24T20:54:16.860Z,82.78
2018-03-24T20:56:44.792Z,82.40
2018-03-24T20:59:12.662Z,82.11
2018-03-24T21:01:40.384Z,82.24
2018-03-24T21:04:08.294Z,81.54
2018-03-24T21:06:36.039Z,81.60
2018-03-24T21:09:03.962Z,81.33
2018-03-24T21:11:32.098Z,81.42
2018-03-24T21:13:59.821Z,81.49
2018-03-24T21:16:27.481Z,81.67
2018-03-24T21:18:55.089Z,79.40
2018-03-24T21:21:22.689Z,79.55
2018-03-24T21:23:50.421Z,80.18
2018-03-24T21:26:18.539Z,79.67
2018-03-24T21:28:46.132Z,79.80
2018-03-24T21:31:13.722Z,79.62
2018-03-24T21:33:41.812Z,79.40
2018-03-24T21:36:09.418Z,78.78
2018-03-24T21:38:37.015Z,78.54
2018-03-24T21:41:04.957Z,78.45
2018-03-24T21:43:32.530Z,79.45
2018-03-24T21:46:00.101Z,79.30
2018-03-24T21:48:27.745Z,79.39
2018-03-24T21:50:55.341Z,79.12
2018-03-24T21:53:23.041Z,78.41
2018-03-24T21:55:50.695Z,78.17
2018-03-24T21:58:18.285Z,78.08
2018-03-24T22:00:45.896Z,78.85
2018-03-24T22:03:13.534Z,78.80
2018-03-24T22:05:41.116Z,78.94
2018-03-24T22:08:08.699Z,78.34
2018-03-24T22:10:36.590Z,78.25
2018-03-24T22:13:04.176Z,77.89
2018-03-24T22:15:31.789Z,78.44
2018-03-24T22:17:59.636Z,78.31
2018-03-24T22:20:27.301Z,78.12
2018-03-24T22:22:54.893Z,77.81
2018-03-24T22:25:22.545Z,77.94
2018-03-24T22:27:50.248Z,77.95
2018-03-24T22:30:17.841Z,77.65
2018-03-24T22:32:45.456Z,77.92
2018-03-24T22:35:13.029Z,77.55
2018-03-24T22:37:40.926Z,77.31
2018-03-24T22:40:08.796Z,77.50
2018-03-24T22:42:36.402Z,77.07
2018-03-24T22:45:04.102Z,76.71
2018-03-24T22:47:31.735Z,77.53
2018-03-24T22:49:59.322Z,76.80
2018-03-24T22:52:27.862Z,76.86
2018-03-24T22:54:55.537Z,77.05
2018-03-24T22:57:23.193Z,77.52
2018-03-24T22:59:50.829Z,77.47
2018-03-24T23:02:19.464Z,78.32
2018-03-24T23:04:47.059Z,78.41
2018-03-24T23:07:14.628Z,77.97
2018-03-24T23:09:42.472Z,78.09
2018-03-24T23:12:10.071Z,77.95
2018-03-24T23:14:37.640Z,78.11
2018-03-24T23:17:05.277Z,77.80
2018-03-24T23:19:32.879Z,76.40
2018-03-24T23:22:00.905Z,77.39
2018-03-24T23:24:28.605Z,77.80
2018-03-24T23:26:56.190Z,77.77
2018-03-24T23:29:23.876Z,77.73
2018-03-24T23:31:51.526Z,77.58
2018-03-24T23:34:19.160Z,77.70
2018-03-24T23:36:47.692Z,77.59
2018-03-24T23:39:15.351Z,77.46
2018-03-24T23:41:43.400Z,77.60
2018-03-24T23:44:10.976Z,77.40
2018-03-24T23:46:38.894Z,77.20
2018-03-24T23:49:06.530Z,76.88
2018-03-24T23:51:34.199Z,77.53
2018-03-24T23:54:02.060Z,76.90
2018-03-24T23:56:29.649Z,76.64
2018-03-24T23:58:57.238Z,76.37
